sensor_id;sensor_type;location;lat;lon;timestamp;pressure;altitude;pressure_sealevel;temperature;humidity
9419;BME280;4748;50.802;7.132;2023-05-16T03:30:19;101046.00;;;10.35;100.00
9419;BME280;4748;50.802;7.132;2023-05-16T03:32:45;101051.38;;;10.35;100.00
9419;BME280;4748;50.802;7.132;2023-05-16T03:35:10;101049.72;;;10.34;100.00
9419;BME280;4748;50.802;7.132;2023-05-16T03:37:36;101057.56;;;10.29;100.00
9419;BME280;4748;50.802;7.132;2023-05-16T03:40:02;101051.81;;;10.25;100.00
9419;BME280;4748;50.802;7.132;2023-05-16T03:42:29;101062.09;;;10.28;100.00
9419;BME280;4748;50.802;7.132;2023-05-16T03:44:56;101061.47;;;10.26;100.00
9419;BME280;4748;50.802;7.132;2023-05-16T03:47:21;101064.56;;;10.23;100.00
9419;BME280;4748;50.802;7.132;2023-05-16T03:49:47;101062.09;;;10.22;100.00
9419;BME280;4748;50.802;7.132;2023-05-16T03:52:12;101078.13;;;10.22;100.00
9419;BME280;4748;50.802;7.132;2023-05-16T03:54:37;101083.69;;;10.20;100.00
9419;BME280;4748;50.802;7.132;2023-05-16T03:57:03;101075.28;;;10.17;100.00
9419;BME280;4748;50.802;7.132;2023-05-16T03:59:28;101080.63;;;10.17;100.00
9419;BME280;4748;50.802;7.132;2023-05-16T04:01:53;101089.69;;;10.16;100.00
9419;BME280;4748;50.802;7.132;2023-05-16T04:04:19;101102.84;;;10.18;100.00
9419;BME280;4748;50.802;7.132;2023-05-16T04:06:44;101102.84;;;10.18;100.00
9419;BME280;4748;50.802;7.132;2023-05-16T04:09:10;101098.72;;;10.21;100.00
9419;BME280;4748;50.802;7.132;2023-05-16T04:11:35;101111.47;;;10.19;100.00
9419;BME280;4748;50.802;7.132;2023-05-16T04:14:02;101112.72;;;10.23;100.00
9419;BME280;4748;50.802;7.132;2023-05-16T04:16:28;101111.06;;;10.29;100.00
9419;BME280;4748;50.802;7.132;2023-05-16T04:18:53;101113.53;;;10.24;100.00
9419;BME280;4748;50.802;7.132;2023-05-16T04:21:20;101122.59;;;10.29;100.00
9419;BME280;4748;50.802;7.132;2023-05-16T04:23:45;101111.88;;;10.29;100.00
9419;BME280;4748;50.802;7.132;2023-05-16T04:26:11;101112.72;;;10.30;100.00
9419;BME280;4748;50.802;7.132;2023-05-16T04:28:37;101118.69;;;10.32;100.00
9419;BME280;4748;50.802;7.132;2023-05-16T04:31:02;101120.09;;;10.41;100.00
9419;BME280;4748;50.802;7.132;2023-05-16T04:33:27;101121.16;;;10.33;100.00
9419;BME280;4748;50.802;7.132;2023-05-16T04:35:53;101137.44;;;10.25;100.00
9419;BME280;4748;50.802;7.132;2023-05-16T04:38:19;101137.41;;;10.32;100.00
9419;BME280;4748;50.802;7.132;2023-05-16T04:40:44;101138.84;;;10.28;100.00
9419;BME280;4748;50.802;7.132;2023-05-16T04:43:10;101137.81;;;10.22;100.00
9419;BME280;4748;50.802;7.132;2023-05-16T04:45:35;101135.56;;;10.26;100.00
9419;BME280;4748;50.802;7.132;2023-05-16T04:48:00;101151.41;;;10.21;100.00
9419;BME280;4748;50.802;7.132;2023-05-16T04:50:26;101151.59;;;10.19;100.00
9419;BME280;4748;50.802;7.132;2023-05-16T04:52:51;101150.78;;;10.19;100.00
9419;BME280;4748;50.802;7.132;2023-05-16T04:55:17;101153.47;;;10.19;100.00
9419;BME280;4748;50.802;7.132;2023-05-16T04:57:42;101155.53;;;10.17;100.00
9419;BME280;4748;50.802;7.132;2023-05-16T05:00:08;101162.31;;;10.13;100.00
9419;BME280;4748;50.802;7.132;2023-05-16T05:02:37;101160.88;;;10.11;100.00
9419;BME280;4748;50.802;7.132;2023-05-16T05:05:04;101167.03;;;10.11;100.00
9419;BME280;4748;50.802;7.132;2023-05-16T05:07:31;101176.09;;;10.10;100.00
9419;BME280;4748;50.802;7.132;2023-05-16T05:09:57;101171.56;;;10.11;100.00
9419;BME280;4748;50.802;7.132;2023-05-16T05:12:22;101175.88;;;10.05;100.00
9419;BME280;4748;50.802;7.132;2023-05-16T05:14:47;101184.94;;;10.04;100.00
9419;BME280;4748;50.802;7.132;2023-05-16T05:17:13;101192.34;;;10.02;100.00
9419;BME280;4748;50.802;7.132;2023-05-16T05:19:38;101198.50;;;10.03;100.00
9419;BME280;4748;50.802;7.132;2023-05-16T05:22:04;101196.44;;;9.98;100.00
9419;BME280;4748;50.802;7.132;2023-05-16T05:24:29;101200.75;;;9.99;100.00
9419;BME280;4748;50.802;7.132;2023-05-16T05:26:55;101213.13;;;10.00;100.00
9419;BME280;4748;50.802;7.132;2023-05-16T05:29:21;101212.31;;;10.06;100.00
9419;BME280;4748;50.802;7.132;2023-05-16T05:31:46;101216.41;;;10.02;100.00
9419;BME280;4748;50.802;7.132;2023-05-16T05:34:12;101213.56;;;10.10;100.00
9419;BME280;4748;50.802;7.132;2023-05-16T05:36:37;101233.72;;;10.06;100.00
9419;BME280;4748;50.802;7.132;2023-05-16T05:39:03;101236.22;;;10.14;100.00
9419;BME280;4748;50.802;7.132;2023-05-16T05:41:28;101232.91;;;10.18;100.00
9419;BME280;4748;50.802;7.132;2023-05-16T05:43:53;101240.34;;;10.23;100.00
9419;BME280;4748;50.802;7.132;2023-05-16T05:46:19;101241.38;;;10.35;100.00
9419;BME280;4748;50.802;7.132;2023-05-16T05:48:44;101239.53;;;10.35;100.00
9419;BME280;4748;50.802;7.132;2023-05-16T05:51:09;101242.41;;;10.66;100.00
9419;BME280;4748;50.802;7.132;2023-05-16T05:53:35;101259.72;;;10.70;100.00
9419;BME280;4748;50.802;7.132;2023-05-16T05:56:00;101269.16;;;11.30;100.00
9419;BME280;4748;50.802;7.132;2023-05-16T05:58:25;101284.22;;;11.25;100.00
9419;BME280;4748;50.802;7.132;2023-05-16T06:00:51;101285.69;;;10.89;100.00
9419;BME280;4748;50.802;7.132;2023-05-16T06:03:17;101290.63;;;10.79;100.00
9419;BME280;4748;50.802;7.132;2023-05-16T06:05:42;101292.91;;;10.75;100.00
9419;BME280;4748;50.802;7.132;2023-05-16T06:08:08;101293.50;;;10.77;100.00
9419;BME280;4748;50.802;7.132;2023-05-16T06:10:33;101298.88;;;10.71;100.00
9419;BME280;4748;50.802;7.132;2023-05-16T06:12:58;101298.03;;;10.58;100.00
9419;BME280;4748;50.802;7.132;2023-05-16T06:15:24;101305.06;;;10.84;100.00
9419;BME280;4748;50.802;7.132;2023-05-16T06:17:50;101317.84;;;10.82;100.00
9419;BME280;4748;50.802;7.132;2023-05-16T06:20:15;101313.28;;;10.83;100.00
9419;BME280;4748;50.802;7.132;2023-05-16T06:22:41;101328.75;;;10.81;100.00
9419;BME280;4748;50.802;7.132;2023-05-16T06:25:06;101328.16;;;10.98;100.00
9419;BME280;4748;50.802;7.132;2023-05-16T06:27:32;101325.47;;;11.11;100.00
9419;BME280;4748;50.802;7.132;2023-05-16T06:29:57;101331.44;;;11.13;100.00
9419;BME280;4748;50.802;7.132;2023-05-16T06:32:22;101334.72;;;11.34;100.00
9419;BME280;4748;50.802;7.132;2023-05-16T06:34:48;101337.19;;;11.42;100.00
9419;BME280;4748;50.802;7.132;2023-05-16T06:37:13;101334.66;;;11.86;100.00
9419;BME280;4748;50.802;7.132;2023-05-16T06:39:39;101347.31;;;12.16;100.00
9419;BME280;4748;50.802;7.132;2023-05-16T06:42:04;101350.50;;;12.00;100.00
9419;BME280;4748;50.802;7.132;2023-05-16T06:44:30;101352.03;;;11.64;100.00
9419;BME280;4748;50.802;7.132;2023-05-16T06:46:55;101352.75;;;12.03;100.00
9419;BME280;4748;50.802;7.132;2023-05-16T06:49:20;101360.47;;;11.87;100.00
9419;BME280;4748;50.802;7.132;2023-05-16T06:51:46;101358.50;;;12.13;100.00
9419;BME280;4748;50.802;7.132;2023-05-16T06:54:11;101368.00;;;12.16;100.00
9419;BME280;4748;50.802;7.132;2023-05-16T06:56:36;101369.44;;;12.12;100.00
9419;BME280;4748;50.802;7.132;2023-05-16T06:59:02;101373.47;;;12.33;100.00
9419;BME280;4748;50.802;7.132;2023-05-16T07:01:27;101375.13;;;12.41;100.00
9419;BME280;4748;50.802;7.132;2023-05-16T07:03:53;101377.16;;;12.39;100.00
9419;BME280;4748;50.802;7.132;2023-05-16T07:06:18;101385.38;;;12.50;100.00
9419;BME280;4748;50.802;7.132;2023-05-16T07:08:43;101379.56;;;12.53;100.00
9419;BME280;4748;50.802;7.132;2023-05-16T07:11:09;101388.50;;;12.47;100.00
9419;BME280;4748;50.802;7.132;2023-05-16T07:13:36;101388.53;;;12.41;100.00
9419;BME280;4748;50.802;7.132;2023-05-16T07:16:02;101386.19;;;12.07;100.00
9419;BME280;4748;50.802;7.132;2023-05-16T07:18:27;101387.72;;;11.77;100.00
9419;BME280;4748;50.802;7.132;2023-05-16T07:20:53;101390.16;;;11.85;100.00
9419;BME280;4748;50.802;7.132;2023-05-16T07:23:18;101386.44;;;11.93;100.00
9419;BME280;4748;50.802;7.132;2023-05-16T07:25:44;101388.69;;;11.96;100.00
9419;BME280;4748;50.802;7.132;2023-05-16T07:28:09;101399.66;;;12.51;100.00
9419;BME280;4748;50.802;7.132;2023-05-16T07:30:35;101400.81;;;13.05;100.00
9419;BME280;4748;50.802;7.132;2023-05-16T07:33:00;101395.66;;;13.52;100.00
9419;BME280;4748;50.802;7.132;2023-05-16T07:35:25;101399.94;;;13.59;100.00
9419;BME280;4748;50.802;7.132;2023-05-16T07:37:51;101402.81;;;13.82;100.00
9419;BME280;4748;50.802;7.132;2023-05-16T07:40:16;101404.06;;;13.62;100.00
9419;BME280;4748;50.802;7.132;2023-05-16T07:42:42;101408.63;;;13.61;100.00
9419;BME280;4748;50.802;7.132;2023-05-16T07:45:08;101398.94;;;13.54;100.00
9419;BME280;4748;50.802;7.132;2023-05-16T07:47:34;101407.47;;;13.26;100.00
9419;BME280;4748;50.802;7.132;2023-05-16T07:50:00;101412.63;;;13.28;100.00
9419;BME280;4748;50.802;7.132;2023-05-16T07:52:25;101418.56;;;13.06;100.00
9419;BME280;4748;50.802;7.132;2023-05-16T07:54:50;101408.31;;;12.96;100.00
9419;BME280;4748;50.802;7.132;2023-05-16T07:57:16;101409.81;;;12.79;100.00
9419;BME280;4748;50.802;7.132;2023-05-16T07:59:42;101411.88;;;12.77;100.00
9419;BME280;4748;50.802;7.132;2023-05-16T08:02:09;101414.75;;;12.45;100.00
9419;BME280;4748;50.802;7.132;2023-05-16T08:04:35;101403.81;;;12.40;100.00
9419;BME280;4748;50.802;7.132;2023-05-16T08:07:00;101408.00;;;12.30;100.00
9419;BME280;4748;50.802;7.132;2023-05-16T08:09:26;101410.53;;;12.12;100.00
9419;BME280;4748;50.802;7.132;2023-05-16T08:11:51;101421.53;;;12.54;100.00
9419;BME280;4748;50.802;7.132;2023-05-16T08:14:17;101416.38;;;12.96;100.00
9419;BME280;4748;50.802;7.132;2023-05-16T08:16:42;101419.31;;;13.19;100.00
9419;BME280;4748;50.802;7.132;2023-05-16T08:19:08;101417.97;;;13.59;100.00
9419;BME280;4748;50.802;7.132;2023-05-16T08:21:33;101422.59;;;13.94;100.00
9419;BME280;4748;50.802;7.132;2023-05-16T08:23:58;101413.41;;;14.01;100.00
9419;BME280;4748;50.802;7.132;2023-05-16T08:26:24;101418.53;;;14.27;100.00
9419;BME280;4748;50.802;7.132;2023-05-16T08:28:49;101412.78;;;14.24;100.00
9419;BME280;4748;50.802;7.132;2023-05-16T08:31:15;101420.53;;;14.78;100.00
9419;BME280;4748;50.802;7.132;2023-05-16T08:33:40;101421.50;;;14.84;100.00
9419;BME280;4748;50.802;7.132;2023-05-16T08:36:06;101418.97;;;14.89;100.00
9419;BME280;4748;50.802;7.132;2023-05-16T08:38:31;101421.09;;;14.98;100.00
9419;BME280;4748;50.802;7.132;2023-05-16T08:40:57;101413.53;;;14.78;100.00
9419;BME280;4748;50.802;7.132;2023-05-16T08:43:22;101417.28;;;15.06;100.00
9419;BME280;4748;50.802;7.132;2023-05-16T08:45:48;101417.22;;;14.65;100.00
9419;BME280;4748;50.802;7.132;2023-05-16T08:48:14;101416.69;;;14.39;100.00
9419;BME280;4748;50.802;7.132;2023-05-16T08:50:41;101408.19;;;14.24;100.00
9419;BME280;4748;50.802;7.132;2023-05-16T08:53:08;101417.78;;;14.38;100.00
9419;BME280;4748;50.802;7.132;2023-05-16T08:55:36;101409.13;;;14.65;100.00
9419;BME280;4748;50.802;7.132;2023-05-16T08:58:03;101404.59;;;14.77;100.00
9419;BME280;4748;50.802;7.132;2023-05-16T09:00:28;101404.47;;;15.01;100.00
9419;BME280;4748;50.802;7.132;2023-05-16T09:02:54;101408.81;;;15.43;100.00
9419;BME280;4748;50.802;7.132;2023-05-16T09:05:21;101390.88;;;15.48;100.00
9419;BME280;4748;50.802;7.132;2023-05-16T09:07:46;101389.56;;;15.39;100.00
9419;BME280;4748;50.802;7.132;2023-05-16T09:10:12;101391.00;;;15.01;100.00
9419;BME280;4748;50.802;7.132;2023-05-16T09:12:41;101399.13;;;14.83;100.00
9419;BME280;4748;50.802;7.132;2023-05-16T09:15:08;101409.59;;;14.62;100.00
9419;BME280;4748;50.802;7.132;2023-05-16T09:17:42;101398.00;;;14.62;100.00
9419;BME280;4748;50.802;7.132;2023-05-16T09:20:16;101413.13;;;14.27;94.13
9419;BME280;4748;50.802;7.132;2023-05-16T09:23:02;101406.69;;;14.10;95.00
9419;BME280;4748;50.802;7.132;2023-05-16T09:25:29;101406.16;;;14.84;100.00
9419;BME280;4748;50.802;7.132;2023-05-16T09:27:56;101403.09;;;15.10;100.00
9419;BME280;4748;50.802;7.132;2023-05-16T09:30:32;101399.28;;;15.29;97.25
9419;BME280;4748;50.802;7.132;2023-05-16T09:32:58;101389.13;;;15.42;100.00
9419;BME280;4748;50.802;7.132;2023-05-16T09:35:23;101385.81;;;15.52;100.00
9419;BME280;4748;50.802;7.132;2023-05-16T09:37:50;101392.59;;;15.32;99.40
9419;BME280;4748;50.802;7.132;2023-05-16T09:40:22;101383.81;;;15.07;78.64
9419;BME280;4748;50.802;7.132;2023-05-16T09:43:00;101403.06;;;15.51;93.58
9419;BME280;4748;50.802;7.132;2023-05-16T09:45:26;101396.66;;;15.11;94.54
9419;BME280;4748;50.802;7.132;2023-05-16T09:47:51;101398.13;;;15.59;97.86
9419;BME280;4748;50.802;7.132;2023-05-16T09:50:17;101395.44;;;15.71;90.81
9419;BME280;4748;50.802;7.132;2023-05-16T09:52:42;101401.91;;;15.92;91.24
9419;BME280;4748;50.802;7.132;2023-05-16T09:55:09;101392.97;;;15.58;98.73
9419;BME280;4748;50.802;7.132;2023-05-16T09:57:38;101398.38;;;15.06;86.38
9419;BME280;4748;50.802;7.132;2023-05-16T10:00:09;101400.00;;;15.07;95.61
9419;BME280;4748;50.802;7.132;2023-05-16T10:02:37;101396.09;;;15.21;88.23
9419;BME280;4748;50.802;7.132;2023-05-16T10:05:03;101396.75;;;15.16;98.98
9419;BME280;4748;50.802;7.132;2023-05-16T10:07:30;101404.72;;;15.63;91.05
9419;BME280;4748;50.802;7.132;2023-05-16T10:09:57;101397.09;;;15.60;99.20
9419;BME280;4748;50.802;7.132;2023-05-16T10:12:29;101399.44;;;15.34;85.71
9419;BME280;4748;50.802;7.132;2023-05-16T10:14:55;101391.94;;;15.59;95.19
9419;BME280;4748;50.802;7.132;2023-05-16T10:17:21;101394.28;;;15.55;94.90
9419;BME280;4748;50.802;7.132;2023-05-16T10:19:47;101397.63;;;15.28;92.54
9419;BME280;4748;50.802;7.132;2023-05-16T10:22:13;101403.88;;;15.29;96.25
9419;BME280;4748;50.802;7.132;2023-05-16T10:24:57;101398.13;;;15.71;77.42
9419;BME280;4748;50.802;7.132;2023-05-16T10:27:25;101400.63;;;15.95;93.35
9419;BME280;4748;50.802;7.132;2023-05-16T10:29:50;101400.16;;;15.75;87.75
9419;BME280;4748;50.802;7.132;2023-05-16T10:32:17;101395.66;;;15.35;82.35
9419;BME280;4748;50.802;7.132;2023-05-16T10:34:44;101390.63;;;15.50;97.48
9419;BME280;4748;50.802;7.132;2023-05-16T10:37:10;101398.59;;;15.68;93.91
9419;BME280;4748;50.802;7.132;2023-05-16T10:39:37;101397.56;;;15.91;92.48
9419;BME280;4748;50.802;7.132;2023-05-16T10:42:05;101400.47;;;16.24;96.59
9419;BME280;4748;50.802;7.132;2023-05-16T10:44:31;101390.84;;;16.28;85.42
9419;BME280;4748;50.802;7.132;2023-05-16T10:46:58;101379.66;;;16.36;85.98
9419;BME280;4748;50.802;7.132;2023-05-16T10:49:25;101386.09;;;17.02;94.80
9419;BME280;4748;50.802;7.132;2023-05-16T10:52:10;101389.72;;;16.80;73.09
9419;BME280;4748;50.802;7.132;2023-05-16T10:54:41;101384.59;;;16.39;76.78
9419;BME280;4748;50.802;7.132;2023-05-16T10:57:10;101393.06;;;16.20;76.11
9419;BME280;4748;50.802;7.132;2023-05-16T10:59:41;101395.63;;;16.49;81.68
9419;BME280;4748;50.802;7.132;2023-05-16T11:02:31;101390.13;;;16.21;74.06
9419;BME280;4748;50.802;7.132;2023-05-16T11:04:59;101388.13;;;16.17;91.56
9419;BME280;4748;50.802;7.132;2023-05-16T11:07:30;101390.75;;;15.89;89.93
9419;BME280;4748;50.802;7.132;2023-05-16T11:10:10;101397.31;;;15.59;77.55
9419;BME280;4748;50.802;7.132;2023-05-16T11:17:45;101389.25;;;16.55;69.52
9419;BME280;4748;50.802;7.132;2023-05-16T11:20:30;101397.53;;;16.92;58.92
9419;BME280;4748;50.802;7.132;2023-05-16T11:25:54;101388.47;;;16.98;65.85
9419;BME280;4748;50.802;7.132;2023-05-16T11:28:21;101393.41;;;17.01;78.80
9419;BME280;4748;50.802;7.132;2023-05-16T11:30:50;101403.59;;;16.83;77.26
9419;BME280;4748;50.802;7.132;2023-05-16T11:33:17;101392.53;;;16.85;82.21
9419;BME280;4748;50.802;7.132;2023-05-16T11:35:43;101389.63;;;17.19;68.95
9419;BME280;4748;50.802;7.132;2023-05-16T11:38:14;101389.59;;;17.02;66.77
9419;BME280;4748;50.802;7.132;2023-05-16T11:40:43;101391.25;;;17.03;74.47
9419;BME280;4748;50.802;7.132;2023-05-16T11:43:08;101383.19;;;16.92;73.69
9419;BME280;4748;50.802;7.132;2023-05-16T11:45:34;101389.28;;;16.99;76.38
9419;BME280;4748;50.802;7.132;2023-05-16T11:48:03;101386.16;;;16.90;65.68
9419;BME280;4748;50.802;7.132;2023-05-16T11:50:29;101396.22;;;16.79;72.78
9419;BME280;4748;50.802;7.132;2023-05-16T11:52:55;101391.06;;;16.93;71.19
9419;BME280;4748;50.802;7.132;2023-05-16T11:55:30;101389.31;;;17.15;62.75
9419;BME280;4748;50.802;7.132;2023-05-16T11:57:57;101386.56;;;17.43;71.24
9419;BME280;4748;50.802;7.132;2023-05-16T12:00:24;101378.09;;;17.56;74.11
9419;BME280;4748;50.802;7.132;2023-05-16T12:02:51;101381.91;;;17.55;64.93
9419;BME280;4748;50.802;7.132;2023-05-16T12:05:17;101384.59;;;17.55;74.16
9419;BME280;4748;50.802;7.132;2023-05-16T12:07:45;101374.91;;;17.59;69.75
9419;BME280;4748;50.802;7.132;2023-05-16T12:10:13;101380.97;;;17.33;67.72
9419;BME280;4748;50.802;7.132;2023-05-16T12:12:44;101381.88;;;17.22;63.35
9419;BME280;4748;50.802;7.132;2023-05-16T12:15:10;101383.00;;;17.10;69.31
9419;BME280;4748;50.802;7.132;2023-05-16T12:17:37;101396.03;;;16.85;70.87
9419;BME280;4748;50.802;7.132;2023-05-16T12:20:04;101393.78;;;16.66;72.20
9419;BME280;4748;50.802;7.132;2023-05-16T12:22:31;101400.31;;;16.53;73.11
9419;BME280;4748;50.802;7.132;2023-05-16T12:24:58;101403.13;;;16.47;70.16
9419;BME280;4748;50.802;7.132;2023-05-16T12:27:24;101393.91;;;16.59;70.66
9419;BME280;4748;50.802;7.132;2023-05-16T12:29:50;101397.78;;;16.91;73.32
9419;BME280;4748;50.802;7.132;2023-05-16T12:32:20;101390.81;;;16.95;70.50
9419;BME280;4748;50.802;7.132;2023-05-16T12:34:49;101387.59;;;16.82;67.47
9419;BME280;4748;50.802;7.132;2023-05-16T12:37:16;101383.50;;;16.79;75.68
9419;BME280;4748;50.802;7.132;2023-05-16T12:39:41;101387.38;;;16.83;74.36
9419;BME280;4748;50.802;7.132;2023-05-16T12:42:07;101382.81;;;17.16;75.66
9419;BME280;4748;50.802;7.132;2023-05-16T12:44:34;101382.41;;;17.08;72.27
9419;BME280;4748;50.802;7.132;2023-05-16T12:47:00;101388.97;;;16.95;74.51
9419;BME280;4748;50.802;7.132;2023-05-16T12:49:26;101381.97;;;16.99;73.88
9419;BME280;4748;50.802;7.132;2023-05-16T12:51:54;101386.50;;;17.38;70.02
9419;BME280;4748;50.802;7.132;2023-05-16T12:54:20;101386.31;;;17.44;73.44
9419;BME280;4748;50.802;7.132;2023-05-16T12:56:47;101386.00;;;17.41;68.27
9419;BME280;4748;50.802;7.132;2023-05-16T12:59:13;101380.56;;;17.74;68.47
9419;BME280;4748;50.802;7.132;2023-05-16T13:01:39;101381.22;;;17.81;67.93
9419;BME280;4748;50.802;7.132;2023-05-16T13:04:06;101385.97;;;17.74;64.41
9419;BME280;4748;50.802;7.132;2023-05-16T13:06:31;101381.47;;;17.63;66.19
9419;BME280;4748;50.802;7.132;2023-05-16T13:08:57;101392.09;;;17.86;62.68
9419;BME280;4748;50.802;7.132;2023-05-16T13:11:23;101378.09;;;17.56;56.18
9419;BME280;4748;50.802;7.132;2023-05-16T13:13:48;101389.28;;;17.43;64.44
9419;BME280;4748;50.802;7.132;2023-05-16T13:16:14;101390.56;;;17.40;61.94
9419;BME280;4748;50.802;7.132;2023-05-16T13:18:39;101389.31;;;17.15;65.59
9419;BME280;4748;50.802;7.132;2023-05-16T13:21:05;101399.09;;;16.88;69.99
9419;BME280;4748;50.802;7.132;2023-05-16T13:23:31;101402.97;;;16.65;69.07
9419;BME280;4748;50.802;7.132;2023-05-16T13:25:57;101411.97;;;16.31;74.63
9419;BME280;4748;50.802;7.132;2023-05-16T13:28:23;101414.44;;;16.21;73.64
9419;BME280;4748;50.802;7.132;2023-05-16T13:30:49;101422.78;;;16.31;74.05
9419;BME280;4748;50.802;7.132;2023-05-16T13:33:15;101426.28;;;16.54;76.57
9419;BME280;4748;50.802;7.132;2023-05-16T13:35:42;101419.50;;;16.68;75.27
9419;BME280;4748;50.802;7.132;2023-05-16T13:38:07;101420.59;;;16.95;75.96
9419;BME280;4748;50.802;7.132;2023-05-16T13:40:33;101422.56;;;16.99;74.78
9419;BME280;4748;50.802;7.132;2023-05-16T13:42:58;101415.09;;;16.90;77.50
9419;BME280;4748;50.802;7.132;2023-05-16T13:45:25;101413.63;;;16.71;76.62
9419;BME280;4748;50.802;7.132;2023-05-16T13:47:51;101413.69;;;16.48;76.03
9419;BME280;4748;50.802;7.132;2023-05-16T13:50:16;101418.78;;;16.45;80.36
9419;BME280;4748;50.802;7.132;2023-05-16T13:52:41;101420.38;;;16.85;78.09
9419;BME280;4748;50.802;7.132;2023-05-16T13:55:08;101416.78;;;17.07;78.63
9419;BME280;4748;50.802;7.132;2023-05-16T13:57:33;101419.78;;;16.94;75.95
9419;BME280;4748;50.802;7.132;2023-05-16T13:59:59;101415.72;;;17.08;76.72
9419;BME280;4748;50.802;7.132;2023-05-16T14:02:24;101417.44;;;17.14;73.97
9419;BME280;4748;50.802;7.132;2023-05-16T14:04:51;101411.19;;;17.25;70.45
9419;BME280;4748;50.802;7.132;2023-05-16T14:07:16;101417.41;;;17.42;68.60
9419;BME280;4748;50.802;7.132;2023-05-16T14:09:42;101416.09;;;17.28;62.14
9419;BME280;4748;50.802;7.132;2023-05-16T14:12:08;101410.00;;;17.21;65.04
9419;BME280;4748;50.802;7.132;2023-05-16T14:14:34;101414.22;;;17.29;63.79
9419;BME280;4748;50.802;7.132;2023-05-16T14:17:00;101411.09;;;17.37;63.95
9419;BME280;4748;50.802;7.132;2023-05-16T14:19:25;101402.31;;;17.46;64.82
9419;BME280;4748;50.802;7.132;2023-05-16T14:21:51;101393.09;;;17.14;63.26
9419;BME280;4748;50.802;7.132;2023-05-16T14:24:16;101388.53;;;17.31;66.72
9419;BME280;4748;50.802;7.132;2023-05-16T14:26:41;101398.63;;;17.36;64.72
9419;BME280;4748;50.802;7.132;2023-05-16T14:29:07;101391.47;;;17.46;61.35
9419;BME280;4748;50.802;7.132;2023-05-16T14:31:32;101384.97;;;17.63;62.34
9419;BME280;4748;50.802;7.132;2023-05-16T14:34:00;101387.47;;;18.02;60.21
9419;BME280;4748;50.802;7.132;2023-05-16T14:36:25;101397.50;;;18.02;60.26
9419;BME280;4748;50.802;7.132;2023-05-16T14:38:50;101387.84;;;17.89;61.30
9419;BME280;4748;50.802;7.132;2023-05-16T14:41:16;101398.06;;;17.66;61.19
9419;BME280;4748;50.802;7.132;2023-05-16T14:43:42;101393.09;;;17.63;59.00
9419;BME280;4748;50.802;7.132;2023-05-16T14:46:07;101397.91;;;17.56;64.13
9419;BME280;4748;50.802;7.132;2023-05-16T14:48:33;101398.38;;;17.86;63.60
9419;BME280;4748;50.802;7.132;2023-05-16T14:50:58;101392.06;;;17.81;61.25
9419;BME280;4748;50.802;7.132;2023-05-16T14:53:24;101391.41;;;17.74;58.43
9419;BME280;4748;50.802;7.132;2023-05-16T14:55:49;101393.59;;;17.77;58.70
9419;BME280;4748;50.802;7.132;2023-05-16T14:58:15;101383.41;;;17.84;58.70
9419;BME280;4748;50.802;7.132;2023-05-16T15:00:40;101386.84;;;17.95;55.46
9419;BME280;4748;50.802;7.132;2023-05-16T15:03:05;101394.59;;;18.25;57.70
9419;BME280;4748;50.802;7.132;2023-05-16T15:05:31;101393.09;;;18.34;54.22
9419;BME280;4748;50.802;7.132;2023-05-16T15:07:56;101400.03;;;18.25;54.75
9419;BME280;4748;50.802;7.132;2023-05-16T15:10:22;101400.63;;;18.10;51.38
9419;BME280;4748;50.802;7.132;2023-05-16T15:12:47;101389.44;;;17.69;52.65
9419;BME280;4748;50.802;7.132;2023-05-16T15:15:12;101403.63;;;17.60;53.54
9419;BME280;4748;50.802;7.132;2023-05-16T15:17:39;101398.03;;;17.34;51.18
9419;BME280;4748;50.802;7.132;2023-05-16T15:20:07;101398.69;;;17.24;50.68
9419;BME280;4748;50.802;7.132;2023-05-16T15:22:34;101407.09;;;17.55;54.91
9419;BME280;4748;50.802;7.132;2023-05-16T15:24:59;101403.13;;;17.79;54.44
9419;BME280;4748;50.802;7.132;2023-05-16T15:27:25;101402.53;;;17.77;53.47
9419;BME280;4748;50.802;7.132;2023-05-16T15:29:51;101402.38;;;17.84;54.40
9419;BME280;4748;50.802;7.132;2023-05-16T15:32:16;101396.50;;;17.54;55.47
9419;BME280;4748;50.802;7.132;2023-05-16T15:34:42;101401.50;;;17.45;58.38
9419;BME280;4748;50.802;7.132;2023-05-16T15:37:08;101407.22;;;17.49;58.89
9419;BME280;4748;50.802;7.132;2023-05-16T15:39:33;101408.47;;;17.25;58.73
9419;BME280;4748;50.802;7.132;2023-05-16T15:42:00;101406.44;;;17.04;59.79
9419;BME280;4748;50.802;7.132;2023-05-16T15:44:28;101424.50;;;16.87;60.68
9419;BME280;4748;50.802;7.132;2023-05-16T15:46:54;101421.25;;;17.02;62.27
9419;BME280;4748;50.802;7.132;2023-05-16T15:49:19;101420.34;;;16.96;59.98
9419;BME280;4748;50.802;7.132;2023-05-16T15:51:46;101432.03;;;17.13;60.97
9419;BME280;4748;50.802;7.132;2023-05-16T15:54:11;101424.56;;;17.20;57.35
9419;BME280;4748;50.802;7.132;2023-05-16T15:56:36;101430.78;;;17.04;56.58
9419;BME280;4748;50.802;7.132;2023-05-16T15:59:02;101426.19;;;17.05;58.93
9419;BME280;4748;50.802;7.132;2023-05-16T16:01:27;101441.28;;;17.29;58.50
9419;BME280;4748;50.802;7.132;2023-05-16T16:03:52;101443.25;;;17.05;59.40
9419;BME280;4748;50.802;7.132;2023-05-16T16:06:18;101446.53;;;17.07;60.86
9419;BME280;4748;50.802;7.132;2023-05-16T16:08:43;101438.72;;;17.22;62.34
9419;BME280;4748;50.802;7.132;2023-05-16T16:11:09;101444.31;;;17.32;63.10
9419;BME280;4748;50.802;7.132;2023-05-16T16:13:34;101444.53;;;17.75;59.83
9419;BME280;4748;50.802;7.132;2023-05-16T16:15:59;101442.84;;;18.06;59.67
9419;BME280;4748;50.802;7.132;2023-05-16T16:18:25;101453.47;;;18.13;58.07
9419;BME280;4748;50.802;7.132;2023-05-16T16:20:51;101445.75;;;17.84;57.74
9419;BME280;4748;50.802;7.132;2023-05-16T16:23:17;101446.97;;;17.76;54.27
9419;BME280;4748;50.802;7.132;2023-05-16T16:25:43;101445.38;;;17.47;56.59
9419;BME280;4748;50.802;7.132;2023-05-16T16:28:08;101440.97;;;17.25;57.42
9419;BME280;4748;50.802;7.132;2023-05-16T16:30:34;101450.00;;;17.19;56.57
9419;BME280;4748;50.802;7.132;2023-05-16T16:32:59;101438.84;;;17.16;57.51
9419;BME280;4748;50.802;7.132;2023-05-16T16:35:25;101441.31;;;17.17;58.55
9419;BME280;4748;50.802;7.132;2023-05-16T16:37:51;101441.13;;;17.07;58.54